createdAt,value
2023-02-23T00:01:22.190Z,98387.69
2023-02-23T00:04:29.828Z,98380.84
2023-02-23T00:07:36.914Z,98388.97
2023-02-23T00:10:44.633Z,98386.25
2023-02-23T00:13:54.284Z,98391.22
2023-02-23T00:17:01.477Z,98385.19
2023-02-23T00:20:12.835Z,98382.59
2023-02-23T00:23:19.409Z,98385.56
2023-02-23T00:26:31.094Z,98373.78
2023-02-23T00:29:40.694Z,98381.19
2023-02-23T00:32:47.220Z,98380.03
2023-02-23T00:35:55.631Z,98383.22
2023-02-23T00:39:06.512Z,98380.72
2023-02-23T00:42:13.779Z,98383.31
2023-02-23T00:45:22.238Z,98379.53
2023-02-23T00:48:28.891Z,98379.81
2023-02-23T00:51:34.798Z,98384.38
2023-02-23T00:54:41.416Z,98387.34
2023-02-23T00:57:47.343Z,98383.69
2023-02-23T01:00:57.203Z,98381.69
2023-02-23T01:04:04.818Z,98372.97
2023-02-23T01:07:13.117Z,98380.84
2023-02-23T01:10:22.651Z,98384.06
2023-02-23T01:13:29.923Z,98381.19
2023-02-23T01:16:39.195Z,98381.81
2023-02-23T01:19:45.764Z,98370.84
2023-02-23T01:22:54.272Z,98371.53
2023-02-23T01:26:01.730Z,98373.44
2023-02-23T01:29:11.304Z,98365.31
2023-02-23T01:32:20.555Z,98368.13
2023-02-23T01:35:27.245Z,98370.84
2023-02-23T01:38:33.760Z,98366.25
2023-02-23T01:41:42.616Z,98360.59
2023-02-23T01:45:27.233Z,98354.34
2023-02-23T01:48:43.582Z,98346.78
2023-02-23T01:51:58.873Z,98339.63
2023-02-23T01:55:06.322Z,98326.31
2023-02-23T01:58:21.909Z,98341.03
2023-02-23T02:01:29.755Z,98339.50
2023-02-23T02:04:46.865Z,98338.09
2023-02-23T02:07:59.252Z,98336.31
2023-02-23T02:11:25.975Z,98334.81
2023-02-23T02:14:35.088Z,98329.38
2023-02-23T02:18:03.393Z,98324.19
2023-02-23T02:22:12.564Z,98323.25
2023-02-23T02:25:43.984Z,98324.19
2023-02-23T02:29:43.146Z,98318.66
2023-02-23T02:33:46.916Z,98318.78
2023-02-23T02:37:36.172Z,98315.13
2023-02-23T02:40:56.065Z,98315.97
2023-02-23T02:44:18.192Z,98314.56
2023-02-23T02:47:36.704Z,98318.31
2023-02-23T02:50:56.405Z,98319.84
2023-02-23T02:54:17.167Z,98313.69
2023-02-23T02:57:29.997Z,98316.75
2023-02-23T03:00:55.184Z,98308.19
2023-02-23T03:04:18.491Z,98316.31
2023-02-23T03:07:46.925Z,98310.53
2023-02-23T03:11:18.031Z,98311.34
2023-02-23T03:14:59.517Z,98318.28
2023-02-23T03:18:52.144Z,98314.63
2023-02-23T03:22:23.255Z,98307.09
2023-02-23T03:25:58.502Z,98301.78
2023-02-23T03:29:32.128Z,98293.66
2023-02-23T03:33:03.584Z,98309.69
2023-02-23T03:36:34.651Z,98309.09
2023-02-23T03:40:07.541Z,98307.56
2023-02-23T03:43:34.867Z,98309.66
2023-02-23T03:47:02.055Z,98311.53
2023-02-23T03:50:30.779Z,98315.03
2023-02-23T03:54:00.064Z,98315.03
2023-02-23T03:57:28.601Z,98313.41
2023-02-23T04:00:57.678Z,98313.31
2023-02-23T04:04:23.355Z,98305.06
2023-02-23T04:07:42.137Z,98311.88
2023-02-23T04:11:13.902Z,98307.16
2023-02-23T04:14:30.099Z,98311.63
2023-02-23T04:17:37.823Z,98310.94
2023-02-23T04:20:47.999Z,98306.09
2023-02-23T04:23:54.890Z,98306.22
2023-02-23T04:27:01.724Z,98296.09
2023-02-23T04:30:11.685Z,98296.41
2023-02-23T04:33:18.675Z,98296.06
2023-02-23T04:36:28.003Z,98288.63
2023-02-23T04:39:34.059Z,98296.50
2023-02-23T04:42:43.062Z,98294.97
2023-02-23T04:45:50.877Z,98290.50
2023-02-23T04:48:57.417Z,98288.75
2023-02-23T04:52:06.269Z,98289.56
2023-02-23T04:55:21.641Z,98300.00
2023-02-23T04:58:27.893Z,98294.13
2023-02-23T05:01:34.502Z,98299.91
2023-02-23T05:04:40.496Z,98294.03
2023-02-23T05:07:50.041Z,98300.38
2023-02-23T05:10:55.810Z,98295.44
2023-02-23T05:14:02.430Z,98290.81
2023-02-23T05:17:08.827Z,98294.31
2023-02-23T05:20:17.898Z,98292.69
2023-02-23T05:23:26.369Z,98288.22
2023-02-23T05:26:33.003Z,98298.47
2023-02-23T05:29:39.123Z,98293.50
2023-02-23T05:32:45.779Z,98295.38
2023-02-23T05:35:51.937Z,98293.84
2023-02-23T05:39:01.220Z,98295.72
2023-02-23T05:42:07.324Z,98291.56
2023-02-23T05:45:14.791Z,98303.56
2023-02-23T05:48:20.559Z,98299.94
2023-02-23T05:51:27.263Z,98291.34
2023-02-23T05:54:35.725Z,98298.78
2023-02-23T05:57:43.990Z,98298.66
2023-02-23T06:00:49.782Z,98298.88
2023-02-23T06:03:56.923Z,98302.41
2023-02-23T06:07:02.872Z,98303.13
2023-02-23T06:10:14.591Z,98310.06
2023-02-23T06:13:21.478Z,98306.63
2023-02-23T06:16:28.269Z,98311.22
2023-02-23T06:19:34.308Z,98323.09
2023-02-23T06:22:42.499Z,98316.06
2023-02-23T06:25:51.168Z,98321.22
2023-02-23T06:28:58.261Z,98320.88
2023-02-23T06:32:04.180Z,98322.56
2023-02-23T06:35:12.042Z,98323.97
2023-02-23T06:38:18.093Z,98322.59
2023-02-23T06:41:28.977Z,98319.22
2023-02-23T06:44:35.641Z,98323.00
2023-02-23T06:47:42.918Z,98312.53
2023-02-23T06:50:48.675Z,98319.38
2023-02-23T06:53:55.793Z,98325.28
2023-02-23T06:57:04.653Z,98325.22
2023-02-23T07:00:15.278Z,98328.06
2023-02-23T07:03:22.131Z,98326.06
2023-02-23T07:06:28.860Z,98331.03
2023-02-23T07:09:34.804Z,98322.91
2023-02-23T07:12:43.971Z,98330.88
2023-02-23T07:15:49.845Z,98335.34
2023-02-23T07:18:56.833Z,98333.25
2023-02-23T07:22:03.127Z,98331.84
2023-02-23T07:25:11.688Z,98328.91
2023-02-23T07:28:21.288Z,98329.63
2023-02-23T07:31:28.620Z,98319.38
2023-02-23T07:34:34.465Z,98316.28
2023-02-23T07:37:42.367Z,98320.66
2023-02-23T07:40:48.217Z,98320.78
2023-02-23T07:43:57.552Z,98309.66
2023-02-23T07:47:03.640Z,98311.91
2023-02-23T07:50:12.856Z,98310.03
2023-02-23T07:53:19.040Z,98307.75
2023-02-23T07:56:26.117Z,98306.78
2023-02-23T07:59:37.465Z,98301.81
2023-02-23T08:02:44.897Z,98298.16
2023-02-23T08:05:51.036Z,98295.50
2023-02-23T08:08:57.599Z,98299.75
2023-02-23T08:12:04.006Z,98311.00
2023-02-23T08:15:14.598Z,98301.41
2023-02-23T08:18:20.647Z,98300.38
2023-02-23T08:21:29.423Z,98287.78
2023-02-23T08:24:35.760Z,98301.25
2023-02-23T08:27:42.579Z,98304.31
2023-02-23T08:30:51.040Z,98307.69
2023-02-23T08:33:57.932Z,98309.00
2023-02-23T08:37:03.852Z,98300.75
2023-02-23T08:40:15.723Z,98305.06
2023-02-23T08:43:21.491Z,98301.13
2023-02-23T08:46:31.676Z,98304.81
2023-02-23T08:49:37.527Z,98299.41
2023-02-23T08:52:45.363Z,98296.66
2023-02-23T08:56:00.823Z,98284.06
2023-02-23T08:59:08.028Z,98290.34
2023-02-23T09:02:18.325Z,98287.63
2023-02-23T09:05:24.950Z,98284.50
2023-02-23T09:08:30.904Z,98287.78
2023-02-23T09:11:37.604Z,98287.78
2023-02-23T09:14:43.332Z,98288.81
2023-02-23T09:17:54.756Z,98292.63
2023-02-23T09:21:00.817Z,98282.69
2023-02-23T09:24:08.272Z,98291.53
2023-02-23T09:27:15.126Z,98288.69
2023-02-23T09:30:24.718Z,98285.53
2023-02-23T09:33:33.062Z,98282.69
2023-02-23T09:36:40.280Z,98287.09
2023-02-23T09:39:46.507Z,98271.31
2023-02-23T09:43:06.482Z,98272.53
2023-02-23T09:46:31.143Z,98285.59
2023-02-23T09:49:48.006Z,98275.88
2023-02-23T09:53:03.360Z,98272.78
2023-02-23T09:56:21.569Z,98275.16
2023-02-23T09:59:29.511Z,98276.44
2023-02-23T10:02:58.390Z,98277.84
2023-02-23T10:06:14.350Z,98277.78
2023-02-23T10:09:45.924Z,98278.00
2023-02-23T10:13:08.282Z,98273.31
2023-02-23T10:16:27.822Z,98282.09
2023-02-23T10:19:50.808Z,98266.56
2023-02-23T10:23:12.141Z,98268.56
2023-02-23T10:26:27.052Z,98268.84
2023-02-23T10:29:42.754Z,98279.53
2023-02-23T10:32:59.272Z,98264.13
2023-02-23T10:36:22.258Z,98265.09
2023-02-23T10:39:32.899Z,98262.47
2023-02-23T10:42:39.541Z,98266.69
2023-02-23T10:45:51.540Z,98257.81
2023-02-23T10:49:00.703Z,98252.53
2023-02-23T10:52:07.608Z,98250.91
2023-02-23T10:55:28.824Z,98242.34
2023-02-23T10:58:43.882Z,98245.09
2023-02-23T11:02:01.333Z,98237.56
2023-02-23T11:05:10.329Z,98233.94
2023-02-23T11:08:32.205Z,98225.63
2023-02-23T11:11:40.720Z,98222.22
2023-02-23T11:14:48.308Z,98221.53
2023-02-23T11:18:01.309Z,98223.03
2023-02-23T11:21:15.645Z,98209.59
2023-02-23T11:24:31.055Z,98212.59
2023-02-23T11:27:40.358Z,98207.00
2023-02-23T11:30:46.477Z,98211.25
2023-02-23T11:33:57.511Z,98206.94
2023-02-23T11:37:08.688Z,98201.38
2023-02-23T11:40:28.116Z,98197.81
2023-02-23T11:43:36.822Z,98193.22
2023-02-23T11:46:46.811Z,98193.53
2023-02-23T11:49:55.345Z,98183.84
2023-02-23T11:53:09.737Z,98194.19
2023-02-23T11:56:25.865Z,98172.75
2023-02-23T11:59:41.466Z,98195.06
2023-02-23T12:02:56.661Z,98190.84
2023-02-23T12:06:03.237Z,98181.31
2023-02-23T12:09:25.677Z,98175.91
2023-02-23T12:12:43.033Z,98177.50
2023-02-23T12:16:00.333Z,98171.31
2023-02-23T12:19:25.882Z,98168.97
2023-02-23T12:22:41.777Z,98168.97
2023-02-23T12:25:57.764Z,98170.09
2023-02-23T12:29:20.586Z,98161.78
2023-02-23T12:32:43.791Z,98145.59
2023-02-23T12:36:01.016Z,98150.66
2023-02-23T12:39:24.594Z,98143.97
2023-02-23T12:42:48.324Z,98144.41
2023-02-23T12:46:02.653Z,98138.63
2023-02-23T12:49:25.704Z,98132.59
2023-02-23T12:52:40.222Z,98115.94
2023-02-23T12:56:07.672Z,98124.13
2023-02-23T12:59:59.823Z,98114.97
2023-02-23T13:03:45.010Z,98104.34
2023-02-23T13:07:09.458Z,98099.97
2023-02-23T13:10:32.666Z,98103.81
2023-02-23T13:13:51.981Z,98089.44
2023-02-23T13:17:11.708Z,98092.19
2023-02-23T13:20:33.725Z,98092.69
2023-02-23T13:23:57.873Z,98090.97
2023-02-23T13:27:19.508Z,98090.88
2023-02-23T13:30:25.439Z,98083.28
2023-02-23T13:33:43.646Z,98082.19
2023-02-23T13:36:52.390Z,98087.13
2023-02-23T13:40:22.117Z,98078.34
2023-02-23T13:43:37.633Z,98069.91
2023-02-23T13:46:57.657Z,98071.44
2023-02-23T13:50:19.350Z,98067.81
2023-02-23T13:53:41.454Z,98063.38
2023-02-23T13:56:57.071Z,98046.34
2023-02-23T14:00:05.084Z,98069.81
2023-02-23T14:03:34.240Z,98053.88
2023-02-23T14:06:43.231Z,98050.16
2023-02-23T14:10:01.677Z,98048.88
2023-02-23T14:13:31.767Z,98048.25
2023-02-23T14:16:37.756Z,98048.41
2023-02-23T14:19:46.857Z,98048.78
2023-02-23T14:23:33.356Z,98043.69
2023-02-23T14:26:48.416Z,98048.63
2023-02-23T14:30:25.611Z,98035.75
2023-02-23T14:34:03.599Z,98032.75
2023-02-23T14:37:25.283Z,98017.16
2023-02-23T14:40:38.005Z,98037.28
2023-02-23T14:43:48.641Z,98031.09
2023-02-23T14:47:07.259Z,98034.66
2023-02-23T14:50:25.803Z,98018.44
2023-02-23T14:53:32.434Z,98025.59
2023-02-23T14:56:48.338Z,98027.03
2023-02-23T15:00:05.998Z,98015.13
2023-02-23T15:03:22.595Z,98025.91
2023-02-23T15:06:29.382Z,98013.38
2023-02-23T15:09:44.021Z,98009.34
2023-02-23T15:12:52.138Z,98004.81
2023-02-23T15:16:01.880Z,98006.06
2023-02-23T15:19:11.431Z,98002.16
2023-02-23T15:22:30.003Z,97997.09
2023-02-23T15:25:40.689Z,98003.66
2023-02-23T15:28:49.100Z,97992.97
2023-02-23T15:31:58.630Z,97996.22
2023-02-23T15:35:12.078Z,97990.75
2023-02-23T15:38:42.355Z,97991.22
2023-02-23T15:41:52.832Z,97983.44
2023-02-23T15:45:05.056Z,97990.22
2023-02-23T15:48:21.095Z,97991.44
2023-02-23T15:51:40.610Z,97980.97
2023-02-23T15:55:00.507Z,97983.75
2023-02-23T15:58:21.717Z,97975.41
2023-02-23T16:01:30.700Z,97976.91
2023-02-23T16:04:44.503Z,97974.78
2023-02-23T16:08:07.205Z,97979.06
2023-02-23T16:11:19.965Z,97979.25
2023-02-23T16:14:30.632Z,97980.13
2023-02-23T16:17:48.533Z,97981.66
2023-02-23T16:20:58.879Z,97975.41
2023-02-23T16:24:22.358Z,97985.59
2023-02-23T16:27:32.751Z,97973.13
2023-02-23T16:30:45.924Z,97982.59
2023-02-23T16:33:58.844Z,97973.97
2023-02-23T16:37:18.481Z,97987.38
2023-02-23T16:40:27.616Z,97983.47
2023-02-23T16:43:37.214Z,97979.22
2023-02-23T16:47:01.665Z,97979.22
2023-02-23T16:50:21.220Z,97979.88
2023-02-23T16:53:27.500Z,97982.00
2023-02-23T16:56:37.554Z,97972.69
2023-02-23T16:59:43.746Z,97989.03
2023-02-23T17:02:50.572Z,97977.94
2023-02-23T17:05:57.580Z,97977.56
2023-02-23T17:09:04.586Z,97981.34
2023-02-23T17:12:18.507Z,97981.84
2023-02-23T17:15:29.339Z,97980.72
2023-02-23T17:18:43.116Z,97984.63
2023-02-23T17:21:50.133Z,97984.13
2023-02-23T17:24:55.942Z,97985.28
2023-02-23T17:28:05.826Z,97982.53
2023-02-23T17:31:12.084Z,97978.41
2023-02-23T17:34:18.812Z,97977.59
2023-02-23T17:37:25.180Z,97969.59
2023-02-23T17:40:36.512Z,97981.38
2023-02-23T17:43:45.219Z,97981.88
2023-02-23T17:46:51.945Z,97981.22
2023-02-23T17:49:57.855Z,97977.28
2023-02-23T17:53:04.387Z,97971.72
2023-02-23T17:56:11.943Z,97972.22
2023-02-23T17:59:21.142Z,97973.53
2023-02-23T18:02:27.910Z,97972.06
2023-02-23T18:05:34.829Z,97968.13
2023-02-23T18:08:43.986Z,97969.59
2023-02-23T18:11:50.575Z,97969.59
2023-02-23T18:15:01.798Z,97966.50
2023-02-23T18:18:08.509Z,97964.38
2023-02-23T18:21:19.298Z,97956.03
2023-02-23T18:24:27.467Z,97962.41
2023-02-23T18:27:33.534Z,97952.09
2023-02-23T18:30:43.744Z,97960.47
2023-02-23T18:33:53.112Z,97955.03
2023-02-23T18:37:03.760Z,97951.31
2023-02-23T18:40:21.625Z,97950.00
2023-02-23T18:43:28.496Z,97946.06
2023-02-23T18:46:37.779Z,97934.78
2023-02-23T18:49:44.371Z,97928.75
2023-02-23T18:52:53.216Z,97929.75
2023-02-23T18:56:08.941Z,97925.81
2023-02-23T18:59:15.554Z,97922.84
2023-02-23T19:02:25.443Z,97919.75
2023-02-23T19:05:31.584Z,97916.00
2023-02-23T19:08:38.361Z,97921.25
2023-02-23T19:11:46.509Z,97915.81
2023-02-23T19:14:54.388Z,97918.94
2023-02-23T19:18:02.860Z,97916.66
2023-02-23T19:21:09.939Z,97909.78
2023-02-23T19:24:16.174Z,97910.75
2023-02-23T19:27:23.660Z,97910.75
2023-02-23T19:30:29.644Z,97907.47
2023-02-23T19:33:41.181Z,97907.13
2023-02-23T19:36:47.218Z,97898.25
2023-02-23T19:39:54.145Z,97912.13
2023-02-23T19:43:00.649Z,97901.84
2023-02-23T19:46:08.248Z,97903.94
2023-02-23T19:49:16.709Z,97911.44
2023-02-23T19:52:24.899Z,97897.06
2023-02-23T19:55:31.155Z,97890.34
2023-02-23T19:58:38.957Z,97895.72
2023-02-23T20:01:45.988Z,97895.72
2023-02-23T20:04:55.297Z,97889.66
2023-02-23T20:08:01.266Z,97890.50
2023-02-23T20:11:09.860Z,97889.00
2023-02-23T20:14:15.731Z,97888.53
2023-02-23T20:17:23.888Z,97884.28
2023-02-23T20:20:32.296Z,97885.75
2023-02-23T20:23:39.016Z,97880.66
2023-02-23T20:26:45.432Z,97888.47
2023-02-23T20:29:53.892Z,97887.31
2023-02-23T20:33:00.557Z,97873.56
2023-02-23T20:36:12.264Z,97875.75
2023-02-23T20:39:19.271Z,97875.44
2023-02-23T20:42:28.542Z,97861.34
2023-02-23T20:45:34.695Z,97855.09
2023-02-23T20:48:41.391Z,97854.22
2023-02-23T20:51:51.987Z,97862.22
2023-02-23T20:54:59.374Z,97858.09
2023-02-23T20:58:06.033Z,97847.72
2023-02-23T21:01:19.343Z,97850.13
2023-02-23T21:04:26.822Z,97846.50
2023-02-23T21:07:36.106Z,97842.78
2023-02-23T21:10:43.362Z,97841.38
2023-02-23T21:13:50.347Z,97846.75
2023-02-23T21:16:56.098Z,97840.59
2023-02-23T21:20:02.662Z,97838.34
2023-02-23T21:23:11.203Z,97830.97
2023-02-23T21:26:21.814Z,97834.66
2023-02-23T21:29:28.136Z,97831.81
2023-02-23T21:32:41.452Z,97830.22
2023-02-23T21:35:47.400Z,97832.78
2023-02-23T21:38:56.750Z,97823.06
2023-02-23T21:42:04.346Z,97817.91
2023-02-23T21:45:14.085Z,97822.75
2023-02-23T21:48:22.767Z,97822.13
2023-02-23T21:51:30.695Z,97818.69
2023-02-23T21:54:39.764Z,97810.00
2023-02-23T21:57:47.996Z,97808.78
2023-02-23T22:00:53.837Z,97805.09
2023-02-23T22:04:01.464Z,97805.28
2023-02-23T22:07:08.295Z,97804.63
2023-02-23T22:10:17.838Z,97808.19
2023-02-23T22:13:23.570Z,97801.25
2023-02-23T22:16:33.446Z,97787.28
2023-02-23T22:19:39.155Z,97786.78
2023-02-23T22:22:45.783Z,97785.03
2023-02-23T22:25:54.132Z,97783.75
2023-02-23T22:29:00.794Z,97783.91
2023-02-23T22:32:06.720Z,97774.56
2023-02-23T22:35:14.709Z,97775.81
2023-02-23T22:38:21.996Z,97768.03
2023-02-23T22:41:32.076Z,97773.72
2023-02-23T22:44:41.541Z,97764.75
2023-02-23T22:47:48.337Z,97764.50
2023-02-23T22:50:54.665Z,97764.75
2023-02-23T22:54:01.269Z,97760.47
2023-02-23T22:57:09.914Z,97764.19
2023-02-23T23:00:21.364Z,97765.81
2023-02-23T23:03:27.632Z,97765.00
2023-02-23T23:06:34.476Z,97752.22
2023-02-23T23:09:40.266Z,97753.41
2023-02-23T23:12:49.670Z,97748.00
2023-02-23T23:16:07.474Z,97751.25
2023-02-23T23:19:16.233Z,97749.09
2023-02-23T23:22:22.092Z,97747.63
2023-02-23T23:25:29.702Z,97742.13
2023-02-23T23:28:40.732Z,97731.34
2023-02-23T23:31:48.078Z,97728.56
2023-02-23T23:34:57.492Z,97725.63
2023-02-23T23:38:06.289Z,97731.06
2023-02-23T23:41:14.309Z,97720.78
2023-02-23T23:44:29.435Z,97721.41
2023-02-23T23:47:35.487Z,97726.53
2023-02-23T23:50:42.484Z,97716.69
2023-02-23T23:53:48.253Z,97711.47
2023-02-23T23:56:55.295Z,97707.84
